createdAt,value
2018-09-14T00:01:07.348Z,85.10
2018-09-14T00:03:35.805Z,85.10
2018-09-14T00:06:04.174Z,85.00
2018-09-14T00:08:32.541Z,84.80
2018-09-14T00:11:01.008Z,85.40
2018-09-14T00:13:29.442Z,84.80
2018-09-14T00:15:58.011Z,84.80
2018-09-14T00:18:26.411Z,84.70
2018-09-14T00:20:54.815Z,84.70
2018-09-14T00:23:23.269Z,84.70
2018-09-14T00:25:51.582Z,84.70
2018-09-14T00:28:19.877Z,84.80
2018-09-14T00:30:48.284Z,85.00
2018-09-14T00:33:16.598Z,84.90
2018-09-14T00:35:44.910Z,85.40
2018-09-14T00:38:13.225Z,84.90
2018-09-14T00:40:41.654Z,84.90
2018-09-14T00:43:10.079Z,84.90
2018-09-14T00:45:38.336Z,84.80
2018-09-14T00:48:06.700Z,84.90
2018-09-14T00:50:35.081Z,84.90
2018-09-14T00:53:03.490Z,86.00
2018-09-14T00:55:31.831Z,85.90
2018-09-14T00:58:06.302Z,86.00
2018-09-14T01:00:34.645Z,86.10
2018-09-14T01:03:02.997Z,86.20
2018-09-14T01:05:31.301Z,86.30
2018-09-14T01:07:59.712Z,86.20
2018-09-14T01:10:28.174Z,86.30
2018-09-14T01:12:56.486Z,86.40
2018-09-14T01:15:24.700Z,86.30
2018-09-14T01:17:52.908Z,86.20
2018-09-14T01:20:21.629Z,86.20
2018-09-14T01:22:49.778Z,86.20
2018-09-14T01:25:18.138Z,86.30
2018-09-14T01:27:46.510Z,86.30
2018-09-14T01:30:14.848Z,86.20
2018-09-14T01:32:43.093Z,86.20
2018-09-14T01:35:17.050Z,86.30
2018-09-14T01:37:45.410Z,86.30
2018-09-14T01:40:13.772Z,86.50
2018-09-14T01:42:42.154Z,86.80
2018-09-14T01:45:10.803Z,86.80
2018-09-14T01:47:39.086Z,86.60
2018-09-14T01:50:07.548Z,86.50
2018-09-14T01:52:36.123Z,86.30
2018-09-14T01:55:04.610Z,86.40
2018-09-14T01:57:33.073Z,86.40
2018-09-14T02:00:01.428Z,86.50
2018-09-14T02:02:30.186Z,86.50
2018-09-14T02:04:58.578Z,86.60
2018-09-14T02:07:27.061Z,86.20
2018-09-14T02:09:55.436Z,86.20
2018-09-14T02:12:23.843Z,86.50
2018-09-14T02:14:52.200Z,86.00
2018-09-14T02:17:20.461Z,86.10
2018-09-14T02:19:48.768Z,86.10
2018-09-14T02:22:17.217Z,86.10
2018-09-14T02:24:45.563Z,86.20
2018-09-14T02:27:14.363Z,86.20
2018-09-14T02:29:42.678Z,86.10
2018-09-14T02:32:10.984Z,86.20
2018-09-14T02:34:39.248Z,86.20
2018-09-14T02:37:07.565Z,86.20
2018-09-14T02:39:35.840Z,86.10
2018-09-14T02:42:04.222Z,86.20
2018-09-14T02:44:32.506Z,86.20
2018-09-14T02:47:01.224Z,86.10
2018-09-14T02:49:30.164Z,85.80
2018-09-14T02:51:58.522Z,85.80
2018-09-14T02:54:26.918Z,85.70
2018-09-14T02:56:55.240Z,85.70
2018-09-14T02:59:23.767Z,85.70
2018-09-14T03:01:52.109Z,85.70
2018-09-14T03:04:20.451Z,85.80
2018-09-14T03:06:48.854Z,85.80
2018-09-14T03:09:17.149Z,85.80
2018-09-14T03:11:45.791Z,85.80
2018-09-14T03:14:14.150Z,85.80
2018-09-14T03:16:42.501Z,85.90
2018-09-14T03:19:10.878Z,86.00
2018-09-14T03:21:39.323Z,86.10
2018-09-14T03:24:07.727Z,86.00
2018-09-14T03:26:35.989Z,86.10
2018-09-14T03:29:04.372Z,86.10
2018-09-14T03:31:32.629Z,86.00
2018-09-14T03:34:00.955Z,86.00
2018-09-14T03:36:35.246Z,86.10
2018-09-14T03:39:04.837Z,86.10
2018-09-14T03:41:33.084Z,86.20
2018-09-14T03:44:01.393Z,86.20
2018-09-14T03:46:29.783Z,86.10
2018-09-14T03:48:58.077Z,86.10
2018-09-14T03:51:26.351Z,86.10
2018-09-14T03:53:54.894Z,86.10
2018-09-14T03:56:23.186Z,86.10
2018-09-14T03:58:51.481Z,86.10
2018-09-14T04:01:20.167Z,86.10
2018-09-14T04:03:48.426Z,86.00
2018-09-14T04:06:16.697Z,85.80
2018-09-14T04:08:45.129Z,85.70
2018-09-14T04:11:13.438Z,85.60
2018-09-14T04:13:41.781Z,85.50
2018-09-14T04:16:10.062Z,85.50
2018-09-14T04:18:38.301Z,85.70
2018-09-14T04:21:06.679Z,85.70
2018-09-14T04:23:34.980Z,85.70
2018-09-14T04:26:03.169Z,85.70
2018-09-14T04:28:31.596Z,85.80
2018-09-14T04:30:59.913Z,85.80
2018-09-14T04:33:28.186Z,85.80
2018-09-14T04:35:56.523Z,85.90
2018-09-14T04:38:24.802Z,85.90
2018-09-14T04:40:53.039Z,85.90
2018-09-14T04:43:21.325Z,85.90
2018-09-14T04:45:49.825Z,85.90
2018-09-14T04:48:18.157Z,85.90
2018-09-14T04:50:46.365Z,85.70
2018-09-14T04:53:14.604Z,85.70
2018-09-14T04:55:42.878Z,85.80
2018-09-14T04:58:11.232Z,85.70
2018-09-14T05:00:47.658Z,86.00
2018-09-14T05:03:16.009Z,86.10
2018-09-14T05:05:44.198Z,86.10
2018-09-14T05:08:12.482Z,86.20
2018-09-14T05:10:41.047Z,86.20
2018-09-14T05:13:09.387Z,86.20
2018-09-14T05:15:37.644Z,86.00
2018-09-14T05:18:06.620Z,86.00
2018-09-14T05:20:34.908Z,86.00
2018-09-14T05:23:03.367Z,86.00
2018-09-14T05:25:31.862Z,86.00
2018-09-14T05:28:00.081Z,85.80
2018-09-14T05:30:28.467Z,85.70
2018-09-14T05:32:56.663Z,85.80
2018-09-14T05:35:24.828Z,86.00
2018-09-14T05:40:26.965Z,86.30
2018-09-14T05:42:55.162Z,86.40
2018-09-14T05:45:23.397Z,86.40
2018-09-14T05:47:51.711Z,86.60
2018-09-14T05:50:19.902Z,86.40
2018-09-14T05:52:48.104Z,86.50
2018-09-14T05:55:16.384Z,86.60
2018-09-14T05:57:44.555Z,86.70
2018-09-14T06:00:12.838Z,86.80
2018-09-14T06:02:41.024Z,86.70
2018-09-14T06:05:09.381Z,86.80
2018-09-14T06:07:37.553Z,86.50
2018-09-14T06:10:06.569Z,87.00
2018-09-14T06:12:35.086Z,86.30
2018-09-14T06:15:03.281Z,86.30
2018-09-14T06:17:31.561Z,86.30
2018-09-14T06:19:59.775Z,86.30
2018-09-14T06:22:27.955Z,86.30
2018-09-14T06:24:56.177Z,86.30
2018-09-14T06:27:24.377Z,86.40
2018-09-14T06:29:52.637Z,86.30
2018-09-14T06:32:20.828Z,86.30
2018-09-14T06:34:49.034Z,86.30
2018-09-14T06:37:17.220Z,86.30
2018-09-14T06:39:45.491Z,86.20
2018-09-14T06:42:13.637Z,86.20
2018-09-14T06:44:42.007Z,86.10
2018-09-14T06:47:10.189Z,86.20
2018-09-14T06:49:38.419Z,86.20
2018-09-14T06:52:06.681Z,86.60
2018-09-14T06:54:34.880Z,86.10
2018-09-14T06:57:03.073Z,86.00
2018-09-14T06:59:31.268Z,86.00
2018-09-14T07:01:59.507Z,85.90
2018-09-14T07:04:27.686Z,85.90
2018-09-14T07:06:56.260Z,85.80
2018-09-14T07:09:24.466Z,85.80
2018-09-14T07:11:52.662Z,85.70
2018-09-14T07:14:21.405Z,85.70
2018-09-14T07:16:49.770Z,85.60
2018-09-14T07:19:17.978Z,84.50
2018-09-14T07:21:46.414Z,84.50
2018-09-14T07:24:14.683Z,84.50
2018-09-14T07:26:42.955Z,84.40
2018-09-14T07:29:11.311Z,84.40
2018-09-14T07:31:39.741Z,84.40
2018-09-14T07:34:07.900Z,84.40
2018-09-14T07:36:36.262Z,84.30
2018-09-14T07:39:06.478Z,84.30
2018-09-14T07:41:37.141Z,84.40
2018-09-14T07:44:05.517Z,84.30
2018-09-14T07:46:33.717Z,84.30
2018-09-14T07:49:02.114Z,84.30
2018-09-14T07:51:30.510Z,84.20
2018-09-14T07:53:58.831Z,84.20
2018-09-14T07:56:27.120Z,84.20
2018-09-14T07:58:55.945Z,84.20
2018-09-14T08:01:24.250Z,84.10
2018-09-14T08:03:53.999Z,84.30
2018-09-14T08:06:22.230Z,84.10
2018-09-14T08:08:50.561Z,84.00
2018-09-14T08:11:19.024Z,84.00
2018-09-14T08:13:47.262Z,83.90
2018-09-14T08:16:15.522Z,83.90
2018-09-14T08:18:43.807Z,83.90
2018-09-14T08:21:12.195Z,83.90
2018-09-14T08:23:40.416Z,83.90
2018-09-14T08:26:08.833Z,83.90
2018-09-14T08:28:37.088Z,84.00
2018-09-14T08:31:05.310Z,84.10
2018-09-14T08:33:35.080Z,84.10
2018-09-14T08:36:03.323Z,84.00
2018-09-14T08:38:31.842Z,83.90
2018-09-14T08:41:00.226Z,84.00
2018-09-14T08:43:28.472Z,83.90
2018-09-14T08:45:56.757Z,83.80
2018-09-14T08:48:25.062Z,83.70
2018-09-14T08:50:53.409Z,83.60
2018-09-14T08:53:21.708Z,84.50
2018-09-14T08:55:49.995Z,83.60
2018-09-14T08:58:18.328Z,83.50
2018-09-14T09:00:46.696Z,83.30
2018-09-14T09:03:14.890Z,83.20
2018-09-14T09:05:43.259Z,83.30
2018-09-14T09:08:11.492Z,83.40
2018-09-14T09:10:40.082Z,83.50
2018-09-14T09:13:09.867Z,83.50
2018-09-14T09:15:38.146Z,83.60
2018-09-14T09:18:06.418Z,83.60
2018-09-14T09:20:34.825Z,83.70
2018-09-14T09:23:03.167Z,83.70
2018-09-14T09:25:31.422Z,83.70
2018-09-14T09:27:59.807Z,83.60
2018-09-14T09:30:28.282Z,83.60
2018-09-14T09:32:56.518Z,83.60
2018-09-14T09:35:24.958Z,83.60
2018-09-14T09:37:53.227Z,83.60
2018-09-14T09:40:21.694Z,83.50
2018-09-14T09:42:50.091Z,83.50
2018-09-14T09:45:18.288Z,83.40
2018-09-14T09:47:46.452Z,83.20
2018-09-14T09:50:14.756Z,83.20
2018-09-14T09:52:42.970Z,83.00
2018-09-14T09:55:11.316Z,82.90
2018-09-14T09:57:39.626Z,83.00
2018-09-14T10:00:12.054Z,82.90
2018-09-14T10:02:44.491Z,82.90
2018-09-14T10:05:18.180Z,82.70
2018-09-14T10:07:46.456Z,82.80
2018-09-14T10:10:14.667Z,82.70
2018-09-14T10:12:43.032Z,82.30
2018-09-14T10:15:11.239Z,82.30
2018-09-14T10:17:39.668Z,82.00
2018-09-14T10:20:07.943Z,82.10
2018-09-14T10:22:36.165Z,82.00
2018-09-14T10:25:04.471Z,81.90
2018-09-14T10:27:32.719Z,81.60
2018-09-14T10:30:00.981Z,81.50
2018-09-14T10:32:29.261Z,81.60
2018-09-14T10:34:57.624Z,80.90
2018-09-14T10:37:25.838Z,80.60
2018-09-14T10:39:54.125Z,80.50
2018-09-14T10:42:22.463Z,80.20
2018-09-14T10:44:50.774Z,79.90
2018-09-14T10:47:19.250Z,80.00
2018-09-14T10:49:48.065Z,79.90
2018-09-14T10:52:16.726Z,80.00
2018-09-14T10:54:48.603Z,79.60
2018-09-14T10:57:16.820Z,79.40
2018-09-14T10:59:45.013Z,79.40
2018-09-14T11:02:13.672Z,79.90
2018-09-14T11:04:42.226Z,78.90
2018-09-14T11:07:10.923Z,78.60
2018-09-14T11:09:39.157Z,78.50
2018-09-14T11:12:07.729Z,79.20
2018-09-14T11:14:35.946Z,78.40
2018-09-14T11:17:04.311Z,78.50
2018-09-14T11:19:32.746Z,78.00
2018-09-14T11:22:01.174Z,77.40
2018-09-14T11:24:29.567Z,77.40
2018-09-14T11:26:59.143Z,77.50
2018-09-14T11:29:27.373Z,77.60
2018-09-14T11:31:55.694Z,77.50
2018-09-14T11:34:24.010Z,76.80
2018-09-14T11:36:52.257Z,76.30
2018-09-14T11:39:20.524Z,76.00
2018-09-14T11:41:48.804Z,76.00
2018-09-14T11:44:17.062Z,75.90
2018-09-14T11:46:45.395Z,76.20
2018-09-14T11:49:13.665Z,75.80
2018-09-14T11:51:41.942Z,75.30
2018-09-14T11:54:10.278Z,73.60
2018-09-14T11:56:38.355Z,74.30
2018-09-14T11:59:06.674Z,74.20
2018-09-14T12:01:34.948Z,74.20
2018-09-14T12:04:03.265Z,74.80
2018-09-14T12:06:31.672Z,75.00
2018-09-14T12:08:59.941Z,74.70
2018-09-14T12:11:28.194Z,74.90
2018-09-14T12:13:56.676Z,74.80
2018-09-14T12:16:24.855Z,74.80
2018-09-14T12:18:53.148Z,74.70
2018-09-14T12:21:21.418Z,74.40
2018-09-14T12:23:49.686Z,73.40
2018-09-14T12:26:17.974Z,73.10
2018-09-14T12:28:46.342Z,73.00
2018-09-14T12:31:14.647Z,73.20
2018-09-14T12:33:42.957Z,72.10
2018-09-14T12:36:11.288Z,72.90
2018-09-14T12:38:39.546Z,73.00
2018-09-14T12:41:07.811Z,73.60
2018-09-14T12:43:36.023Z,74.00
2018-09-14T12:46:04.328Z,74.30
2018-09-14T12:48:32.651Z,73.90
2018-09-14T12:51:00.993Z,73.20
2018-09-14T12:53:29.321Z,73.20
2018-09-14T12:55:57.653Z,73.00
2018-09-14T12:58:25.955Z,73.50
2018-09-14T13:00:54.314Z,73.50
2018-09-14T13:03:22.560Z,73.50
2018-09-14T13:05:50.985Z,73.50
2018-09-14T13:08:19.216Z,72.90
2018-09-14T13:10:47.523Z,72.90
2018-09-14T13:13:15.938Z,73.00
2018-09-14T13:15:44.290Z,73.10
2018-09-14T13:18:12.647Z,73.30
2018-09-14T13:20:40.950Z,73.40
2018-09-14T13:23:09.231Z,73.30
2018-09-14T13:25:37.612Z,73.20
2018-09-14T13:28:05.835Z,73.00
2018-09-14T13:30:34.289Z,73.40
2018-09-14T13:33:02.508Z,73.50
2018-09-14T13:35:30.908Z,72.90
2018-09-14T13:37:59.231Z,72.30
2018-09-14T13:40:27.527Z,72.20
2018-09-14T13:42:55.781Z,72.20
2018-09-14T13:45:24.138Z,71.90
2018-09-14T13:47:52.483Z,72.40
2018-09-14T13:50:20.758Z,72.50
2018-09-14T13:52:49.072Z,72.30
2018-09-14T13:55:17.285Z,72.00
2018-09-14T13:57:45.575Z,71.80
2018-09-14T14:00:13.820Z,72.20
2018-09-14T14:02:42.276Z,72.40
2018-09-14T14:05:10.550Z,72.60
2018-09-14T14:07:38.756Z,72.00
2018-09-14T14:10:07.126Z,71.80
2018-09-14T14:12:35.798Z,71.80
2018-09-14T14:15:04.092Z,71.40
2018-09-14T14:17:32.425Z,71.70
2018-09-14T14:20:00.691Z,71.40
2018-09-14T14:22:29.022Z,69.10
2018-09-14T14:24:57.305Z,70.90
2018-09-14T14:27:25.781Z,70.80
2018-09-14T14:29:54.100Z,70.70
2018-09-14T14:32:22.502Z,70.60
2018-09-14T14:34:50.794Z,70.60
2018-09-14T14:37:19.040Z,70.40
2018-09-14T14:39:47.355Z,70.30
2018-09-14T14:42:15.615Z,70.90
2018-09-14T14:44:44.026Z,70.60
2018-09-14T14:47:12.281Z,69.70
2018-09-14T14:49:40.745Z,70.10
2018-09-14T14:52:09.614Z,70.30
2018-09-14T14:54:37.971Z,70.20
2018-09-14T14:57:06.312Z,70.10
2018-09-14T14:59:34.562Z,70.30
2018-09-14T15:02:02.812Z,70.40
2018-09-14T15:04:31.178Z,70.50
2018-09-14T15:06:59.437Z,71.30
2018-09-14T15:09:27.745Z,70.40
2018-09-14T15:11:56.208Z,70.20
2018-09-14T15:14:24.877Z,69.60
2018-09-14T15:16:53.712Z,69.70
2018-09-14T15:19:22.064Z,69.40
2018-09-14T15:21:50.228Z,68.70
2018-09-14T15:24:18.560Z,68.70
2018-09-14T15:26:46.858Z,67.50
2018-09-14T15:29:15.152Z,69.00
2018-09-14T15:31:43.434Z,69.00
2018-09-14T15:34:11.732Z,69.30
2018-09-14T15:36:40.149Z,68.80
2018-09-14T15:39:09.745Z,68.40
2018-09-14T15:41:38.022Z,68.70
2018-09-14T15:44:06.268Z,69.00
2018-09-14T15:46:34.577Z,68.80
2018-09-14T15:49:03.048Z,68.70
2018-09-14T15:51:31.488Z,68.50
2018-09-14T15:53:59.712Z,69.90
2018-09-14T15:56:28.003Z,69.40
2018-09-14T15:58:56.502Z,69.40
2018-09-14T16:01:24.777Z,69.30
2018-09-14T16:03:53.068Z,69.40
2018-09-14T16:06:21.544Z,69.80
2018-09-14T16:08:49.788Z,69.70
2018-09-14T16:11:18.155Z,69.30
2018-09-14T16:13:46.385Z,69.30
2018-09-14T16:16:14.751Z,69.40
2018-09-14T16:18:43.109Z,69.20
2018-09-14T16:21:11.465Z,68.80
2018-09-14T16:26:13.323Z,69.30
2018-09-14T16:28:41.601Z,69.50
2018-09-14T16:31:09.868Z,69.70
2018-09-14T16:33:38.189Z,69.80
2018-09-14T16:36:06.436Z,69.90
2018-09-14T16:38:34.772Z,70.00
2018-09-14T16:41:03.002Z,70.00
2018-09-14T16:43:31.335Z,69.60
2018-09-14T16:45:59.565Z,69.30
2018-09-14T16:48:27.858Z,69.60
2018-09-14T16:50:56.197Z,69.40
2018-09-14T16:53:24.529Z,69.70
2018-09-14T16:55:52.774Z,70.10
2018-09-14T16:58:21.106Z,69.90
2018-09-14T17:00:49.398Z,70.10
2018-09-14T17:03:17.694Z,70.00
2018-09-14T17:05:46.090Z,70.20
2018-09-14T17:08:14.338Z,70.20
2018-09-14T17:10:42.578Z,70.30
2018-09-14T17:13:11.302Z,70.30
2018-09-14T17:15:39.569Z,70.40
2018-09-14T17:18:07.859Z,70.40
2018-09-14T17:20:36.186Z,70.60
2018-09-14T17:23:04.419Z,70.70
2018-09-14T17:25:32.686Z,70.70
2018-09-14T17:28:00.924Z,70.60
2018-09-14T17:30:29.249Z,71.40
2018-09-14T17:32:57.568Z,70.80
2018-09-14T17:35:26.186Z,70.60
2018-09-14T17:37:54.370Z,70.80
2018-09-14T17:40:22.640Z,70.80
2018-09-14T17:42:50.918Z,70.80
2018-09-14T17:45:19.182Z,70.80
2018-09-14T17:47:47.642Z,70.80
2018-09-14T17:50:15.921Z,70.90
2018-09-14T17:52:44.565Z,70.90
2018-09-14T17:55:12.790Z,70.90
2018-09-14T17:57:41.237Z,70.80
2018-09-14T18:00:09.878Z,70.90
2018-09-14T18:02:38.147Z,70.90
2018-09-14T18:05:06.473Z,70.90
2018-09-14T18:07:34.725Z,70.90
2018-09-14T18:10:03.039Z,71.10
2018-09-14T18:12:31.316Z,71.00
2018-09-14T18:14:59.914Z,71.70
2018-09-14T18:17:28.320Z,71.10
2018-09-14T18:19:56.719Z,71.10
2018-09-14T18:22:25.294Z,71.30
2018-09-14T18:24:53.619Z,71.30
2018-09-14T18:27:21.959Z,71.50
2018-09-14T18:29:50.380Z,71.50
2018-09-14T18:32:18.645Z,71.60
2018-09-14T18:34:46.963Z,71.60
2018-09-14T18:37:15.587Z,71.70
2018-09-14T18:39:44.022Z,71.70
2018-09-14T18:42:12.302Z,71.90
2018-09-14T18:44:40.740Z,71.90
2018-09-14T18:47:09.080Z,72.10
2018-09-14T18:49:37.439Z,72.30
2018-09-14T18:52:05.747Z,72.40
2018-09-14T18:54:34.093Z,72.30
2018-09-14T18:57:02.607Z,73.20
2018-09-14T18:59:31.104Z,72.50
2018-09-14T19:01:59.512Z,72.60
2018-09-14T19:04:27.830Z,72.60
2018-09-14T19:06:56.142Z,72.60
2018-09-14T19:09:24.680Z,72.60
2018-09-14T19:11:53.197Z,72.70
2018-09-14T19:14:21.540Z,72.70
2018-09-14T19:16:49.845Z,72.60
2018-09-14T19:19:18.189Z,72.80
2018-09-14T19:21:46.519Z,72.80
2018-09-14T19:24:14.861Z,72.90
2018-09-14T19:26:43.126Z,73.80
2018-09-14T19:29:11.524Z,73.10
2018-09-14T19:31:39.776Z,73.10
2018-09-14T19:34:08.113Z,73.30
2018-09-14T19:36:36.428Z,73.40
2018-09-14T19:39:09.058Z,73.40
2018-09-14T19:41:37.505Z,73.40
2018-09-14T19:44:05.767Z,73.50
2018-09-14T19:46:34.761Z,73.50
2018-09-14T19:49:03.039Z,73.70
2018-09-14T19:51:31.329Z,73.70
2018-09-14T19:53:59.658Z,73.70
2018-09-14T19:56:27.953Z,73.70
2018-09-14T19:58:56.587Z,73.70
2018-09-14T20:01:24.967Z,73.80
2018-09-14T20:03:53.484Z,73.90
2018-09-14T20:06:21.890Z,73.80
2018-09-14T20:08:50.156Z,74.00
2018-09-14T20:11:18.496Z,74.00
2018-09-14T20:13:46.931Z,74.00
2018-09-14T20:16:15.721Z,73.90
2018-09-14T20:18:44.063Z,73.90
2018-09-14T20:21:12.374Z,73.90
2018-09-14T20:23:40.610Z,73.90
2018-09-14T20:26:08.924Z,73.80
2018-09-14T20:28:37.255Z,73.80
2018-09-14T20:31:05.610Z,73.90
2018-09-14T20:33:34.573Z,73.80
2018-09-14T20:36:02.898Z,73.90
2018-09-14T20:38:31.182Z,74.00
2018-09-14T20:40:59.448Z,74.00
2018-09-14T20:43:27.864Z,74.10
2018-09-14T20:45:56.438Z,74.10
2018-09-14T20:48:24.771Z,74.20
2018-09-14T20:50:52.986Z,74.30
2018-09-14T20:53:21.289Z,74.20
2018-09-14T20:55:49.586Z,74.30
2018-09-14T20:58:17.805Z,74.40
2018-09-14T21:00:46.201Z,74.40
2018-09-14T21:03:14.486Z,74.50
2018-09-14T21:05:43.176Z,74.60
2018-09-14T21:08:11.593Z,74.70
2018-09-14T21:10:39.842Z,74.80
2018-09-14T21:13:09.963Z,74.80
2018-09-14T21:15:38.529Z,74.90
2018-09-14T21:18:06.855Z,74.90
2018-09-14T21:20:35.193Z,75.00
2018-09-14T21:23:03.865Z,75.10
2018-09-14T21:25:32.142Z,75.10
2018-09-14T21:28:00.409Z,75.20
2018-09-14T21:30:28.652Z,75.30
2018-09-14T21:32:57.458Z,75.40
2018-09-14T21:35:25.742Z,75.30
2018-09-14T21:37:53.985Z,75.40
2018-09-14T21:40:22.291Z,75.40
2018-09-14T21:42:50.807Z,75.40
2018-09-14T21:45:19.113Z,75.30
2018-09-14T21:47:48.312Z,75.40
2018-09-14T21:50:16.598Z,75.40
2018-09-14T21:52:44.899Z,75.50
2018-09-14T21:55:13.196Z,75.60
2018-09-14T21:57:41.733Z,75.70
2018-09-14T22:00:16.371Z,75.80
2018-09-14T22:02:44.678Z,75.80
2018-09-14T22:05:13.226Z,75.80
2018-09-14T22:07:41.465Z,75.90
2018-09-14T22:10:09.725Z,75.90
2018-09-14T22:12:38.003Z,75.90
2018-09-14T22:15:12.811Z,75.90
2018-09-14T22:17:41.279Z,75.90
2018-09-14T22:20:09.580Z,75.80
2018-09-14T22:22:38.074Z,75.80
2018-09-14T22:25:06.597Z,75.80
2018-09-14T22:27:35.121Z,75.80
2018-09-14T22:30:03.541Z,75.90
2018-09-14T22:32:32.495Z,75.80
2018-09-14T22:35:00.881Z,75.90
2018-09-14T22:37:29.127Z,75.40
2018-09-14T22:39:57.378Z,76.00
2018-09-14T22:42:25.665Z,76.00
2018-09-14T22:44:54.179Z,76.00
2018-09-14T22:47:22.446Z,76.10
2018-09-14T22:49:51.039Z,76.20
2018-09-14T22:52:24.551Z,76.30
2018-09-14T22:54:52.790Z,76.40
2018-09-14T22:57:21.124Z,76.30
2018-09-14T22:59:49.432Z,76.40
2018-09-14T23:02:17.692Z,76.50
2018-09-14T23:04:45.993Z,76.50
2018-09-14T23:07:14.442Z,76.60
2018-09-14T23:09:43.078Z,76.60
2018-09-14T23:12:11.334Z,76.60
2018-09-14T23:14:39.730Z,76.60
2018-09-14T23:17:08.121Z,76.70
2018-09-14T23:19:36.702Z,76.70
2018-09-14T23:22:05.044Z,76.70
2018-09-14T23:24:33.270Z,76.90
2018-09-14T23:27:01.570Z,76.90
2018-09-14T23:29:30.141Z,76.90
2018-09-14T23:31:58.666Z,77.00
2018-09-14T23:34:26.977Z,77.10
2018-09-14T23:36:55.266Z,77.10
2018-09-14T23:39:23.932Z,77.20
2018-09-14T23:41:52.308Z,77.20
2018-09-14T23:44:20.768Z,77.20
2018-09-14T23:46:49.199Z,77.20
2018-09-14T23:49:17.506Z,77.90
2018-09-14T23:51:45.835Z,77.20
2018-09-14T23:54:14.418Z,77.20
2018-09-14T23:56:42.920Z,77.20
2018-09-14T23:59:16.102Z,77.40
